Time;durP1;ratioP1;P1;durP2;ratioP2;P2;SDS_P1;SDS_P2;PMS_P1;PMS_P2;Temp;Humidity;BMP_temperature;BMP_pressure;BME280_temperature;BME280_humidity;BME280_pressure;Samples;Min_cycle;Max_cycle;Signal;HPM_P1;HPM_P2
2022/05/13 00:00:44;;;;;;;;;;;18.30;66.50;;;;;;5085888;28;20467;-57
2022/05/13 00:03:09;;;;;;;;;;;18.30;66.70;;;;;;5084009;28;19951;-58
2022/05/13 00:05:35;;;;;;;;;;;18.30;66.80;;;;;;5089927;28;20360;-57
2022/05/13 00:08:00;;;;;;;;;;;18.20;67.00;;;;;;5091053;28;19915;-57
2022/05/13 00:10:26;;;;;;;;;;;18.20;67.10;;;;;;5091649;28;19919;-58
2022/05/13 00:12:52;;;;;;;;;;;18.20;67.30;;;;;;5091433;28;19974;-57
2022/05/13 00:15:19;;;;;;;;;;;18.20;67.50;;;;;;5091206;28;19908;-57
2022/05/13 00:17:47;;;;;;;;;;;18.20;67.60;;;;;;5091519;28;19931;-58
2022/05/13 00:20:13;;;;;;;;;;;18.20;67.90;;;;;;5091203;28;19908;-58
2022/05/13 00:22:43;;;;;;;;;;;18.10;67.90;;;;;;5092211;28;20072;-58
2022/05/13 00:25:09;;;;;;;;;;;18.10;67.90;;;;;;5090592;28;19919;-58
2022/05/13 00:27:34;;;;;;;;;;;18.10;68.00;;;;;;5092457;28;19909;-57
2022/05/13 00:30:00;;;;;;;;;;;18.10;68.00;;;;;;5090239;28;19914;-57
2022/05/13 00:32:25;;;;;;;;;;;18.10;68.10;;;;;;5089439;28;20549;-58
2022/05/13 00:34:51;;;;;;;;;;;18.10;68.20;;;;;;5093146;28;19908;-57
2022/05/13 00:37:18;;;;;;;;;;;18.10;68.20;;;;;;5092874;28;19920;-58
2022/05/13 00:39:44;;;;;;;;;;;18.10;68.30;;;;;;5093103;28;19953;-58
2022/05/13 00:42:10;;;;;;;;;;;18.10;68.30;;;;;;5093105;28;20275;-58
2022/05/13 00:44:36;;;;;;;;;;;18.00;68.30;;;;;;5091529;28;20359;-57
2022/05/13 00:47:03;;;;;;;;;;;18.00;68.40;;;;;;5091196;28;20010;-58
2022/05/13 00:49:31;;;;;;;;;;;18.00;68.40;;;;;;5086971;28;19930;-58
2022/05/13 00:51:57;;;;;;;;;;;18.00;68.50;;;;;;5090644;28;20350;-58
2022/05/13 00:54:23;;;;;;;;;;;18.00;68.60;;;;;;5092880;28;19908;-58
2022/05/13 00:56:48;;;;;;;;;;;18.00;68.50;;;;;;5086884;28;20363;-57
2022/05/13 00:59:19;;;;;;;;;;;18.00;68.50;;;;;;5091012;28;19990;-58
2022/05/13 01:01:45;;;;;;;;;;;18.00;68.60;;;;;;5091480;28;19912;-58
2022/05/13 01:04:12;;;;;;;;;;;18.00;68.60;;;;;;5088781;28;20288;-58
2022/05/13 01:06:41;;;;;;;;;;;18.00;68.60;;;;;;5091108;28;19926;-58
2022/05/13 01:09:06;;;;;;;;;;;17.90;68.60;;;;;;5091685;28;20058;-58
2022/05/13 01:11:34;;;;;;;;;;;18.00;68.70;;;;;;5089667;28;19999;-57
2022/05/13 01:14:02;;;;;;;;;;;17.90;68.50;;;;;;5091312;28;19908;-57
2022/05/13 01:16:27;;;;;;;;;;;17.90;68.60;;;;;;5091324;28;20008;-57
2022/05/13 01:18:53;;;;;;;;;;;18.00;68.60;;;;;;5089928;28;19908;-57
2022/05/13 01:21:20;;;;;;;;;;;17.90;68.50;;;;;;5089312;28;20291;-58
2022/05/13 01:23:45;;;;;;;;;;;17.90;68.70;;;;;;5091187;28;20327;-58
2022/05/13 01:26:12;;;;;;;;;;;17.90;68.70;;;;;;5091542;28;19908;-57
2022/05/13 01:28:40;;;;;;;;;;;17.90;68.70;;;;;;5091413;28;19912;-57
2022/05/13 01:31:07;;;;;;;;;;;17.90;68.60;;;;;;5089760;28;20007;-58
2022/05/13 01:33:33;;;;;;;;;;;17.90;68.70;;;;;;5090305;28;19908;-57
2022/05/13 01:35:59;;;;;;;;;;;17.90;68.60;;;;;;5090906;28;20260;-58
2022/05/13 01:38:27;;;;;;;;;;;17.80;68.60;;;;;;5090013;28;19973;-57
2022/05/13 01:40:52;;;;;;;;;;;17.80;68.60;;;;;;5089410;28;19911;-58
2022/05/13 01:43:18;;;;;;;;;;;17.80;68.60;;;;;;5088373;28;20275;-58
2022/05/13 01:45:43;;;;;;;;;;;17.80;68.70;;;;;;5091236;28;19953;-57
2022/05/13 01:48:09;;;;;;;;;;;17.80;68.80;;;;;;5089882;28;19908;-58
2022/05/13 01:50:36;;;;;;;;;;;17.80;68.80;;;;;;5090453;28;19915;-58
2022/05/13 01:53:02;;;;;;;;;;;17.80;68.80;;;;;;5092100;28;20283;-58
2022/05/13 01:55:28;;;;;;;;;;;17.80;68.90;;;;;;5088386;28;20338;-58
2022/05/13 01:57:53;;;;;;;;;;;17.80;68.90;;;;;;5090441;28;19947;-58
2022/05/13 02:00:19;;;;;;;;;;;17.80;68.90;;;;;;5090981;28;20006;-58
2022/05/13 02:05:29;;;;;;;;;;;17.70;69.00;;;;;;5086290;28;19977;-58
2022/05/13 02:07:55;;;;;;;;;;;17.80;69.20;;;;;;5091646;28;19969;-57
2022/05/13 02:10:20;;;;;;;;;;;17.70;69.20;;;;;;5090319;28;19912;-58
2022/05/13 02:12:46;;;;;;;;;;;17.70;69.00;;;;;;5088821;28;19947;-58
2022/05/13 02:15:12;;;;;;;;;;;17.80;69.20;;;;;;5091272;28;19908;-58
2022/05/13 02:17:37;;;;;;;;;;;17.70;69.10;;;;;;5088697;28;19912;-58
2022/05/13 02:20:07;;;;;;;;;;;17.80;69.20;;;;;;5086047;28;19916;-57
2022/05/13 02:22:33;;;;;;;;;;;17.80;69.10;;;;;;5088822;28;20287;-57
2022/05/13 02:24:58;;;;;;;;;;;17.80;69.20;;;;;;5088246;28;19916;-58
2022/05/13 02:27:24;;;;;;;;;;;17.80;69.20;;;;;;5091524;28;19912;-58
2022/05/13 02:29:49;;;;;;;;;;;17.80;69.20;;;;;;5089344;28;19916;-57
2022/05/13 02:32:15;;;;;;;;;;;17.80;69.20;;;;;;5089294;28;19908;-58
2022/05/13 02:34:41;;;;;;;;;;;17.80;69.20;;;;;;5090287;28;19908;-57
2022/05/13 02:37:06;;;;;;;;;;;17.80;69.50;;;;;;5089377;28;19915;-56
2022/05/13 02:39:32;;;;;;;;;;;17.80;70.80;;;;;;5089557;28;20424;-58
2022/05/13 02:41:57;;;;;;;;;;;17.70;71.10;;;;;;5089318;28;19912;-58
2022/05/13 02:44:23;;;;;;;;;;;17.70;71.70;;;;;;5089325;28;19914;-58
2022/05/13 02:46:49;;;;;;;;;;;17.60;71.90;;;;;;5089236;28;19908;-58
2022/05/13 02:49:15;;;;;;;;;;;17.60;72.70;;;;;;5085478;28;19912;-58
2022/05/13 02:51:40;;;;;;;;;;;17.50;73.00;;;;;;5089653;28;20256;-57
2022/05/13 02:54:07;;;;;;;;;;;17.50;73.50;;;;;;5088325;28;19912;-57
2022/05/13 02:56:33;;;;;;;;;;;17.50;74.00;;;;;;5090041;28;19969;-58
2022/05/13 02:58:58;;;;;;;;;;;17.50;74.40;;;;;;5088523;28;19915;-58
2022/05/13 03:01:24;;;;;;;;;;;17.40;73.60;;;;;;5087598;28;19912;-57
2022/05/13 03:03:50;;;;;;;;;;;17.40;72.70;;;;;;5086327;28;19908;-58
2022/05/13 03:06:16;;;;;;;;;;;17.40;72.80;;;;;;5090215;28;20001;-58
2022/05/13 03:08:42;;;;;;;;;;;17.40;72.70;;;;;;5085562;28;19908;-57
2022/05/13 03:11:08;;;;;;;;;;;17.40;72.40;;;;;;5090614;28;20328;-58
2022/05/13 03:13:34;;;;;;;;;;;17.40;71.90;;;;;;5089281;28;19994;-58
2022/05/13 03:16:10;;;;;;;;;;;17.40;71.40;;;;;;5089275;28;19930;-58
2022/05/13 03:18:38;;;;;;;;;;;17.40;71.20;;;;;;5086390;28;19915;-57
2022/05/13 03:21:04;;;;;;;;;;;17.40;70.90;;;;;;5086516;28;19919;-58
2022/05/13 03:23:30;;;;;;;;;;;17.30;70.70;;;;;;5088536;28;19916;-57
2022/05/13 03:25:55;;;;;;;;;;;17.30;70.70;;;;;;5090399;28;19912;-58
2022/05/13 03:28:22;;;;;;;;;;;17.30;70.60;;;;;;5089476;28;20600;-58
2022/05/13 03:30:49;;;;;;;;;;;17.40;70.80;;;;;;5089371;28;19951;-58
2022/05/13 03:33:16;;;;;;;;;;;17.40;71.10;;;;;;5090487;28;20014;-58
2022/05/13 03:35:41;;;;;;;;;;;17.50;71.10;;;;;;5089179;28;19927;-57
2022/05/13 03:38:07;;;;;;;;;;;17.60;70.90;;;;;;5088989;28;20568;-57
2022/05/13 03:40:33;;;;;;;;;;;17.80;70.50;;;;;;5087483;28;19967;-57
2022/05/13 03:42:58;;;;;;;;;;;17.90;69.90;;;;;;5091408;28;19915;-58
2022/05/13 03:45:24;;;;;;;;;;;18.10;69.80;;;;;;5092012;28;19931;-58
2022/05/13 03:47:49;;;;;;;;;;;18.20;69.10;;;;;;5090140;28;20012;-57
2022/05/13 03:50:15;;;;;;;;;;;18.30;68.70;;;;;;5093451;28;19911;-58
2022/05/13 03:52:42;;;;;;;;;;;18.50;68.70;;;;;;5092936;28;19908;-57
2022/05/13 03:55:07;;;;;;;;;;;18.80;68.70;;;;;;5091885;28;19915;-57
2022/05/13 03:57:33;;;;;;;;;;;19.30;68.50;;;;;;5089714;28;20436;-58
2022/05/13 04:00:00;;;;;;;;;;;19.80;67.60;;;;;;5092323;28;19915;-57
2022/05/13 04:02:27;;;;;;;;;;;20.10;65.70;;;;;;5093127;28;19950;-58
2022/05/13 04:10:21;;;;;;;;;;;19.80;64.10;;;;;;5090902;28;19915;-58
2022/05/13 04:18:14;;;;;;;;;;;19.60;65.70;;;;;;5073886;28;19915;-57
2022/05/13 04:20:40;;;;;;;;;;;20.20;66.20;;;;;;5093409;28;20283;-58
2022/05/13 04:23:05;;;;;;;;;;;20.90;64.80;;;;;;5088148;28;19927;-58
2022/05/13 04:25:32;;;;;;;;;;;21.30;63.10;;;;;;5092125;28;20378;-58
2022/05/13 04:27:58;;;;;;;;;;;21.50;62.10;;;;;;5091677;28;19916;-58
2022/05/13 04:30:23;;;;;;;;;;;21.60;62.20;;;;;;5092691;28;19904;-58
2022/05/13 04:32:49;;;;;;;;;;;22.10;62.00;;;;;;5091633;28;20002;-57
2022/05/13 04:35:16;;;;;;;;;;;22.70;61.60;;;;;;5090359;28;19908;-58
2022/05/13 04:37:42;;;;;;;;;;;23.20;60.00;;;;;;5090925;28;19918;-58
2022/05/13 04:40:07;;;;;;;;;;;23.50;59.20;;;;;;5090831;28;19908;-58
2022/05/13 04:42:51;;;;;;;;;;;23.60;58.70;;;;;;5092109;28;19918;-57
2022/05/13 04:45:24;;;;;;;;;;;23.80;59.30;;;;;;5090142;28;19912;-58
2022/05/13 04:50:41;;;;;;;;;;;23.70;57.20;;;;;;5087352;28;19962;-59
2022/05/13 04:53:07;;;;;;;;;;;23.30;57.40;;;;;;5089147;28;20465;-58
2022/05/13 04:55:33;;;;;;;;;;;23.10;57.80;;;;;;5089304;28;19908;-58
2022/05/13 04:57:59;;;;;;;;;;;22.90;57.60;;;;;;5087727;28;19994;-58
2022/05/13 05:00:25;;;;;;;;;;;22.80;57.90;;;;;;5089099;28;19916;-58
2022/05/13 05:02:50;;;;;;;;;;;22.80;57.80;;;;;;5090504;28;19930;-57
2022/05/13 05:05:16;;;;;;;;;;;22.80;58.20;;;;;;5083913;28;19916;-58
2022/05/13 05:07:42;;;;;;;;;;;23.10;58.10;;;;;;5084607;28;19908;-58
2022/05/13 05:10:08;;;;;;;;;;;23.60;58.10;;;;;;5088365;28;20033;-58
2022/05/13 05:12:34;;;;;;;;;;;24.10;57.60;;;;;;5090077;28;19999;-58
2022/05/13 05:14:59;;;;;;;;;;;24.60;56.90;;;;;;5087318;28;19932;-56
2022/05/13 05:17:25;;;;;;;;;;;25.10;56.30;;;;;;5090319;28;19915;-57
2022/05/13 05:19:50;;;;;;;;;;;25.30;55.20;;;;;;5089265;28;19930;-58
2022/05/13 05:22:16;;;;;;;;;;;25.40;54.40;;;;;;5088797;28;20035;-58
2022/05/13 05:24:41;;;;;;;;;;;25.40;53.60;;;;;;5090125;28;20324;-58
2022/05/13 05:27:09;;;;;;;;;;;25.20;53.40;;;;;;5084609;28;19918;-58
2022/05/13 05:29:35;;;;;;;;;;;24.90;53.60;;;;;;5086385;28;19908;-58
2022/05/13 05:32:01;;;;;;;;;;;24.50;53.70;;;;;;5087199;28;19916;-58
2022/05/13 05:34:27;;;;;;;;;;;24.10;54.20;;;;;;5092583;28;19923;-58
2022/05/13 05:36:52;;;;;;;;;;;23.70;54.30;;;;;;5090024;28;19999;-58
2022/05/13 05:39:18;;;;;;;;;;;23.30;54.30;;;;;;5090223;28;20252;-58
2022/05/13 05:41:43;;;;;;;;;;;22.90;54.60;;;;;;5091083;28;19912;-58
2022/05/13 05:44:09;;;;;;;;;;;22.60;55.40;;;;;;5090408;28;19916;-58
2022/05/13 05:46:35;;;;;;;;;;;22.30;55.30;;;;;;5089619;28;20295;-57
2022/05/13 05:49:00;;;;;;;;;;;22.00;55.50;;;;;;5085344;28;20424;-58
2022/05/13 05:51:26;;;;;;;;;;;21.70;55.80;;;;;;5087393;28;19912;-58
2022/05/13 05:59:20;;;;;;;;;;;21.20;56.30;;;;;;5087261;28;19915;-58
2022/05/13 06:01:46;;;;;;;;;;;21.00;56.50;;;;;;5087861;28;20551;-57
2022/05/13 06:04:11;;;;;;;;;;;21.00;56.60;;;;;;5089455;28;20399;-58
2022/05/13 06:06:37;;;;;;;;;;;20.80;56.70;;;;;;5081193;28;19916;-58
2022/05/13 06:09:02;;;;;;;;;;;20.80;57.10;;;;;;5083504;28;19915;-58
2022/05/13 06:11:28;;;;;;;;;;;20.70;56.90;;;;;;5084283;28;20298;-58
2022/05/13 06:13:54;;;;;;;;;;;20.70;57.20;;;;;;5062662;28;19912;-58
2022/05/13 06:16:22;;;;;;;;;;;20.60;57.30;;;;;;5077297;28;19981;-59
2022/05/13 06:18:48;;;;;;;;;;;20.60;57.00;;;;;;5078193;28;20050;-58
2022/05/13 06:21:14;;;;;;;;;;;20.60;56.70;;;;;;5087181;28;20006;-58
2022/05/13 06:23:39;;;;;;;;;;;20.60;56.60;;;;;;5084658;28;20299;-59
2022/05/13 06:26:05;;;;;;;;;;;20.60;56.80;;;;;;5084965;28;19912;-59
2022/05/13 06:28:31;;;;;;;;;;;20.50;56.30;;;;;;5086798;28;19922;-58
2022/05/13 06:30:56;;;;;;;;;;;20.50;56.50;;;;;;5081642;28;20294;-58
2022/05/13 06:33:22;;;;;;;;;;;20.50;56.40;;;;;;5086349;28;19908;-58
2022/05/13 06:35:48;;;;;;;;;;;20.50;55.80;;;;;;5077629;28;19922;-58
2022/05/13 06:38:20;;;;;;;;;;;20.50;55.90;;;;;;5083426;28;19989;-57
2022/05/13 06:40:46;;;;;;;;;;;20.50;56.10;;;;;;5079097;28;20317;-57
2022/05/13 06:43:12;;;;;;;;;;;20.50;55.80;;;;;;5084120;28;19986;-58
2022/05/13 06:45:37;;;;;;;;;;;20.50;55.90;;;;;;5063213;28;20352;-58
2022/05/13 06:48:04;;;;;;;;;;;20.50;55.80;;;;;;5082814;28;20388;-59
2022/05/13 06:50:29;;;;;;;;;;;20.50;55.70;;;;;;5081255;28;19915;-59
2022/05/13 06:52:55;;;;;;;;;;;20.50;55.60;;;;;;5073488;28;19990;-58
2022/05/13 06:55:20;;;;;;;;;;;20.50;55.60;;;;;;5076089;28;20563;-58
2022/05/13 06:57:46;;;;;;;;;;;20.50;55.60;;;;;;5077058;28;19922;-59
2022/05/13 07:00:12;;;;;;;;;;;20.60;55.50;;;;;;5072531;28;19912;-59
2022/05/13 07:02:38;;;;;;;;;;;20.60;55.60;;;;;;5074303;28;20014;-58
2022/05/13 07:05:03;;;;;;;;;;;20.60;55.60;;;;;;5071340;28;20417;-60
2022/05/13 07:07:29;;;;;;;;;;;20.60;55.80;;;;;;5073816;28;19916;-59
2022/05/13 07:09:55;;;;;;;;;;;20.60;55.60;;;;;;5075346;28;19942;-59
2022/05/13 07:12:20;;;;;;;;;;;20.70;55.10;;;;;;5076112;28;19996;-58
2022/05/13 07:14:46;;;;;;;;;;;20.80;55.20;;;;;;5079577;28;20340;-59
2022/05/13 07:17:11;;;;;;;;;;;20.80;55.30;;;;;;5075625;28;20014;-59
2022/05/13 07:19:37;;;;;;;;;;;20.80;55.10;;;;;;5076481;28;19916;-59
2022/05/13 07:22:02;;;;;;;;;;;20.80;55.10;;;;;;5076774;28;19930;-59
2022/05/13 07:24:28;;;;;;;;;;;20.80;55.40;;;;;;5076324;28;19919;-59
2022/05/13 07:26:54;;;;;;;;;;;20.80;55.20;;;;;;5073783;28;19995;-58
2022/05/13 07:29:19;;;;;;;;;;;20.80;54.70;;;;;;5070433;28;20003;-59
2022/05/13 07:31:46;;;;;;;;;;;20.80;55.10;;;;;;5077507;28;19927;-59
2022/05/13 07:34:11;;;;;;;;;;;20.80;55.30;;;;;;5077349;28;19916;-59
2022/05/13 07:36:37;;;;;;;;;;;20.80;55.30;;;;;;5074121;28;20316;-59
2022/05/13 07:41:47;;;;;;;;;;;20.80;55.20;;;;;;5074275;28;19931;-58
2022/05/13 07:44:12;;;;;;;;;;;20.70;54.90;;;;;;5072690;28;19916;-59
2022/05/13 07:46:39;;;;;;;;;;;20.80;55.10;;;;;;5068562;28;19961;-59
2022/05/13 07:49:06;;;;;;;;;;;20.70;55.10;;;;;;5074429;28;20371;-59
2022/05/13 07:51:31;;;;;;;;;;;20.70;55.20;;;;;;5071162;28;19916;-60
2022/05/13 07:53:57;;;;;;;;;;;20.70;54.90;;;;;;5071059;28;19966;-60
2022/05/13 07:56:22;;;;;;;;;;;20.70;55.00;;;;;;5074458;28;20310;-59
2022/05/13 07:58:48;;;;;;;;;;;20.70;54.60;;;;;;5072930;28;19912;-59
2022/05/13 08:01:14;;;;;;;;;;;20.60;54.60;;;;;;5067156;28;19931;-60
2022/05/13 08:03:41;;;;;;;;;;;20.70;55.00;;;;;;5065263;28;19962;-60
2022/05/13 08:06:08;;;;;;;;;;;20.60;55.00;;;;;;5067169;28;21246;-60
2022/05/13 08:08:35;;;;;;;;;;;20.60;54.50;;;;;;5072078;28;20057;-58
2022/05/13 08:11:02;;;;;;;;;;;20.60;54.10;;;;;;5073419;28;19916;-60
2022/05/13 08:13:31;;;;;;;;;;;20.60;53.80;;;;;;5072043;28;20342;-59
2022/05/13 08:16:17;;;;;;;;;;;20.50;53.40;;;;;;5063773;28;19932;-59
2022/05/13 08:18:43;;;;;;;;;;;20.50;53.50;;;;;;5073882;28;19912;-58
2022/05/13 08:21:08;;;;;;;;;;;20.40;53.60;;;;;;5066823;28;19920;-59
2022/05/13 08:23:34;;;;;;;;;;;20.40;53.70;;;;;;5074486;28;19922;-58
2022/05/13 08:26:00;;;;;;;;;;;20.30;53.60;;;;;;5070541;28;19916;-59
2022/05/13 08:28:26;;;;;;;;;;;20.30;53.50;;;;;;5082216;28;19923;-60
2022/05/13 08:30:51;;;;;;;;;;;20.30;53.70;;;;;;5078346;28;19916;-59
2022/05/13 08:33:17;;;;;;;;;;;20.30;53.60;;;;;;5076519;28;19923;-57
2022/05/13 08:35:46;;;;;;;;;;;20.20;53.50;;;;;;5069058;28;19912;-59
2022/05/13 08:38:12;;;;;;;;;;;20.20;53.70;;;;;;5078689;28;19955;-59
2022/05/13 08:40:45;;;;;;;;;;;20.10;53.60;;;;;;5076827;28;19922;-59
2022/05/13 08:43:13;;;;;;;;;;;20.10;53.90;;;;;;5075530;28;19957;-59
2022/05/13 08:45:41;;;;;;;;;;;20.10;53.70;;;;;;5072655;28;19916;-57
2022/05/13 08:48:08;;;;;;;;;;;20.10;53.50;;;;;;5075421;28;20903;-59
2022/05/13 08:50:56;;;;;;;;;;;20.00;53.70;;;;;;5074805;28;19912;-59
2022/05/13 08:53:43;;;;;;;;;;;20.10;53.70;;;;;;5057807;28;19911;-58
2022/05/13 08:56:15;;;;;;;;;;;20.10;53.40;;;;;;5073978;28;19927;-59
2022/05/13 08:58:56;;;;;;;;;;;20.00;53.50;;;;;;5075752;28;19916;-59
2022/05/13 09:01:24;;;;;;;;;;;20.00;53.60;;;;;;5067074;28;20001;-59
2022/05/13 09:03:56;;;;;;;;;;;20.00;53.40;;;;;;5071637;28;19916;-59
2022/05/13 09:06:37;;;;;;;;;;;20.00;53.90;;;;;;5064674;28;19916;-59
2022/05/13 09:09:04;;;;;;;;;;;19.90;53.80;;;;;;5072803;28;19916;-60
2022/05/13 09:11:53;;;;;;;;;;;19.90;53.30;;;;;;5071702;28;19966;-59
2022/05/13 09:14:21;;;;;;;;;;;19.90;53.70;;;;;;5070260;28;19965;-59
2022/05/13 09:16:53;;;;;;;;;;;19.90;53.80;;;;;;5065609;28;19982;-58
2022/05/13 09:19:33;;;;;;;;;;;19.90;53.90;;;;;;5070144;28;20545;-59
2022/05/13 09:21:59;;;;;;;;;;;19.80;54.10;;;;;;5064782;28;19931;-59
2022/05/13 09:24:25;;;;;;;;;;;19.80;53.90;;;;;;5058614;28;19913;-60
2022/05/13 09:26:51;;;;;;;;;;;19.80;54.00;;;;;;5067847;28;19916;-60
2022/05/13 09:29:18;;;;;;;;;;;19.80;54.10;;;;;;5077288;28;19966;-59
2022/05/13 09:31:45;;;;;;;;;;;19.80;54.20;;;;;;5070278;28;20359;-59
2022/05/13 09:34:31;;;;;;;;;;;19.80;54.50;;;;;;5066553;28;19916;-59
2022/05/13 09:37:17;;;;;;;;;;;19.80;54.40;;;;;;5079223;28;19928;-58
2022/05/13 09:39:44;;;;;;;;;;;19.90;54.50;;;;;;5073248;28;19916;-59
2022/05/13 09:42:22;;;;;;;;;;;19.90;54.50;;;;;;5078295;28;19916;-57
2022/05/13 09:44:48;;;;;;;;;;;19.90;54.20;;;;;;5079812;28;19916;-58
2022/05/13 09:47:17;;;;;;;;;;;20.00;54.30;;;;;;5076894;28;19964;-57
2022/05/13 09:49:47;;;;;;;;;;;20.00;54.30;;;;;;5068583;28;19965;-56
2022/05/13 09:52:15;;;;;;;;;;;20.00;54.40;;;;;;5064556;28;20313;-57
2022/05/13 09:54:46;;;;;;;;;;;20.10;54.60;;;;;;5067264;28;20300;-56
2022/05/13 09:57:20;;;;;;;;;;;20.10;54.40;;;;;;5070557;28;19916;-56
2022/05/13 09:59:52;;;;;;;;;;;20.10;54.40;;;;;;5071775;28;19916;-57
2022/05/13 10:02:25;;;;;;;;;;;20.10;54.40;;;;;;5063397;28;19926;-57
2022/05/13 10:04:52;;;;;;;;;;;20.20;54.40;;;;;;5073858;28;19923;-57
2022/05/13 10:07:18;;;;;;;;;;;20.30;54.50;;;;;;5075748;28;19916;-57
2022/05/13 10:15:25;;;;;;;;;;;20.60;54.50;;;;;;5069942;28;19935;-57
2022/05/13 10:17:53;;;;;;;;;;;20.80;54.50;;;;;;5075813;28;19937;-57
2022/05/13 10:20:37;;;;;;;;;;;20.90;54.30;;;;;;5074676;28;20038;-55
2022/05/13 10:23:03;;;;;;;;;;;20.90;54.30;;;;;;5067773;28;19924;-58
2022/05/13 10:26:04;;;;;;;;;;;21.00;53.50;;;;;;5064599;28;20082;-57
2022/05/13 10:28:36;;;;;;;;;;;21.10;53.90;;;;;;4988402;28;19959;-57
2022/05/13 10:31:08;;;;;;;;;;;21.10;53.90;;;;;;5064741;28;19926;-57
2022/05/13 10:33:38;;;;;;;;;;;21.20;53.40;;;;;;5067922;28;19957;-57
2022/05/13 10:36:19;;;;;;;;;;;21.20;53.50;;;;;;5072505;28;19916;-57
2022/05/13 10:38:53;;;;;;;;;;;21.20;53.70;;;;;;5075290;28;19916;-59
2022/05/13 10:41:30;;;;;;;;;;;21.20;53.90;;;;;;5070007;28;19950;-58
2022/05/13 10:44:19;;;;;;;;;;;21.30;53.90;;;;;;5078991;28;19919;-57
2022/05/13 10:46:45;;;;;;;;;;;21.30;53.60;;;;;;5038658;28;19916;-58
2022/05/13 10:49:11;;;;;;;;;;;21.30;53.60;;;;;;5078804;28;19973;-57
2022/05/13 10:51:55;;;;;;;;;;;21.40;53.50;;;;;;5074093;28;19922;-58
2022/05/13 10:54:23;;;;;;;;;;;21.40;53.70;;;;;;5075282;28;21507;-58
2022/05/13 10:56:53;;;;;;;;;;;21.40;53.90;;;;;;5077765;28;19912;-57
2022/05/13 10:59:38;;;;;;;;;;;21.40;54.00;;;;;;5072793;28;20659;-59
2022/05/13 11:02:15;;;;;;;;;;;21.30;54.00;;;;;;5074148;28;19943;-58
2022/05/13 11:04:47;;;;;;;;;;;21.30;53.90;;;;;;5077802;28;19944;-56
2022/05/13 11:07:31;;;;;;;;;;;21.30;54.20;;;;;;5070522;28;20287;-58
2022/05/13 11:09:57;;;;;;;;;;;21.20;54.00;;;;;;5079137;28;19912;-57
2022/05/13 11:12:32;;;;;;;;;;;21.20;54.20;;;;;;5075610;28;19916;-60
2022/05/13 11:14:58;;;;;;;;;;;21.20;54.10;;;;;;5072558;28;19919;-59
2022/05/13 11:17:26;;;;;;;;;;;21.10;54.20;;;;;;5069144;28;19916;-58
2022/05/13 11:20:03;;;;;;;;;;;21.20;54.40;;;;;;5071553;28;20675;-58
2022/05/13 11:23:00;;;;;;;;;;;21.10;54.50;;;;;;5074168;28;19971;-58
2022/05/13 11:28:32;;;;;;;;;;;21.20;54.50;;;;;;5078806;28;19923;-58
2022/05/13 11:31:01;;;;;;;;;;;21.10;54.60;;;;;;5072605;28;19911;-57
2022/05/13 11:33:38;;;;;;;;;;;21.20;54.80;;;;;;5073916;28;20364;-58
2022/05/13 11:36:13;;;;;;;;;;;21.20;55.20;;;;;;5069739;28;19916;-57
2022/05/13 11:38:44;;;;;;;;;;;21.20;55.00;;;;;;5073580;28;21648;-59
2022/05/13 11:41:13;;;;;;;;;;;21.20;54.90;;;;;;5075233;28;20399;-58
2022/05/13 11:43:44;;;;;;;;;;;21.30;54.90;;;;;;5073241;28;20624;-57
2022/05/13 11:46:19;;;;;;;;;;;21.20;54.80;;;;;;5067113;28;20003;-59
2022/05/13 11:48:46;;;;;;;;;;;21.20;54.90;;;;;;5070200;28;19912;-59
2022/05/13 11:51:20;;;;;;;;;;;21.20;55.00;;;;;;5072056;28;19916;-58
2022/05/13 11:53:48;;;;;;;;;;;21.20;54.90;;;;;;5071000;28;19955;-58
2022/05/13 11:56:16;;;;;;;;;;;21.20;54.80;;;;;;5074463;28;19958;-59
2022/05/13 11:58:48;;;;;;;;;;;21.20;54.80;;;;;;5067550;28;20636;-58
2022/05/13 12:01:14;;;;;;;;;;;21.10;54.70;;;;;;5069234;28;19920;-58
2022/05/13 12:03:40;;;;;;;;;;;21.10;54.60;;;;;;5075479;28;20654;-59
2022/05/13 12:06:10;;;;;;;;;;;21.10;54.70;;;;;;5078572;28;19920;-58
2022/05/13 12:08:36;;;;;;;;;;;21.10;55.10;;;;;;5071624;28;20208;-57
2022/05/13 12:11:01;;;;;;;;;;;21.10;55.30;;;;;;5069799;28;20394;-56
2022/05/13 12:13:29;;;;;;;;;;;21.10;55.30;;;;;;5072966;28;19923;-59
2022/05/13 12:16:04;;;;;;;;;;;21.10;55.10;;;;;;5071668;28;19949;-59
2022/05/13 12:18:30;;;;;;;;;;;21.10;55.40;;;;;;5068386;28;19912;-58
2022/05/13 12:21:04;;;;;;;;;;;21.00;55.20;;;;;;5067152;28;19969;-59
2022/05/13 12:23:31;;;;;;;;;;;21.00;55.30;;;;;;5073076;28;20367;-60
2022/05/13 12:25:58;;;;;;;;;;;21.00;55.40;;;;;;5077169;28;19915;-60
2022/05/13 12:28:28;;;;;;;;;;;21.00;55.30;;;;;;5072654;28;20006;-59
2022/05/13 12:30:54;;;;;;;;;;;21.00;55.20;;;;;;5072088;28;19923;-59
2022/05/13 12:33:20;;;;;;;;;;;20.90;55.30;;;;;;5062845;28;20381;-59
2022/05/13 12:38:54;;;;;;;;;;;20.80;55.90;;;;;;5075885;28;20299;-58
2022/05/13 12:41:24;;;;;;;;;;;20.80;56.00;;;;;;5077218;28;19916;-59
2022/05/13 12:43:54;;;;;;;;;;;20.80;56.10;;;;;;5076895;28;20377;-58
2022/05/13 12:46:38;;;;;;;;;;;20.70;56.10;;;;;;5067872;28;20359;-60
2022/05/13 12:49:09;;;;;;;;;;;20.70;56.20;;;;;;5075498;28;19994;-57
2022/05/13 12:51:40;;;;;;;;;;;20.70;56.00;;;;;;5074223;28;19923;-57
2022/05/13 12:54:06;;;;;;;;;;;20.70;56.60;;;;;;5073074;28;19912;-56
2022/05/13 12:56:36;;;;;;;;;;;20.70;55.80;;;;;;5072551;28;20046;-57
2022/05/13 12:59:02;;;;;;;;;;;20.70;55.70;;;;;;5075031;28;20038;-58
2022/05/13 13:01:28;;;;;;;;;;;20.70;55.70;;;;;;5070248;28;20023;-58
2022/05/13 13:03:54;;;;;;;;;;;20.70;55.70;;;;;;5078325;28;19916;-58
2022/05/13 13:06:20;;;;;;;;;;;20.70;55.90;;;;;;5072921;28;19951;-58
2022/05/13 13:08:47;;;;;;;;;;;20.80;56.00;;;;;;5072166;28;19916;-61
2022/05/13 13:11:28;;;;;;;;;;;20.80;56.10;;;;;;5075061;28;20365;-58
2022/05/13 13:14:02;;;;;;;;;;;20.80;55.90;;;;;;5071950;28;19916;-57
2022/05/13 13:16:35;;;;;;;;;;;20.90;56.10;;;;;;5069628;28;19916;-57
2022/05/13 13:19:12;;;;;;;;;;;20.90;55.90;;;;;;5070336;28;19949;-59
2022/05/13 13:21:38;;;;;;;;;;;21.00;55.80;;;;;;5074182;28;19922;-58
2022/05/13 13:24:30;;;;;;;;;;;21.00;55.70;;;;;;5070455;28;19916;-58
2022/05/13 13:26:56;;;;;;;;;;;21.10;55.60;;;;;;5068874;28;20392;-57
2022/05/13 13:29:26;;;;;;;;;;;21.20;55.50;;;;;;5077296;28;19908;-57
2022/05/13 13:31:51;;;;;;;;;;;21.20;55.30;;;;;;5067038;28;20878;-57
2022/05/13 13:34:24;;;;;;;;;;;21.30;55.30;;;;;;5069108;28;19916;-57
2022/05/13 13:36:51;;;;;;;;;;;21.30;55.30;;;;;;5071797;28;19938;-59
2022/05/13 13:39:16;;;;;;;;;;;21.40;55.40;;;;;;5076946;28;20622;-58
2022/05/13 13:41:46;;;;;;;;;;;21.40;55.40;;;;;;5076093;28;19915;-59
2022/05/13 13:44:13;;;;;;;;;;;21.40;55.20;;;;;;5072483;28;19912;-59
2022/05/13 13:46:43;;;;;;;;;;;21.40;54.90;;;;;;5073761;28;20307;-59
2022/05/13 13:49:10;;;;;;;;;;;21.50;54.80;;;;;;5076160;28;19919;-60
2022/05/13 13:51:42;;;;;;;;;;;21.50;54.70;;;;;;5069890;28;19915;-59
2022/05/13 13:54:10;;;;;;;;;;;21.50;54.90;;;;;;5071055;28;19981;-59
2022/05/13 13:56:44;;;;;;;;;;;21.50;54.70;;;;;;5069837;28;19923;-58
2022/05/13 13:59:22;;;;;;;;;;;21.50;54.70;;;;;;5068134;28;20019;-59
2022/05/13 14:01:49;;;;;;;;;;;21.50;54.60;;;;;;5063320;28;19976;-59
2022/05/13 14:04:20;;;;;;;;;;;21.60;54.20;;;;;;5050717;28;20406;-59
2022/05/13 14:06:46;;;;;;;;;;;21.50;54.30;;;;;;5070213;28;19920;-59
2022/05/13 14:09:20;;;;;;;;;;;21.50;54.40;;;;;;5075232;28;19916;-60
2022/05/13 14:11:48;;;;;;;;;;;21.50;54.50;;;;;;5076288;28;20370;-60
2022/05/13 14:14:13;;;;;;;;;;;21.50;54.60;;;;;;5079282;28;19916;-60
2022/05/13 14:16:44;;;;;;;;;;;21.50;54.50;;;;;;5076181;28;19919;-60
2022/05/13 14:19:11;;;;;;;;;;;21.50;54.60;;;;;;5078971;28;20302;-59
2022/05/13 14:21:47;;;;;;;;;;;21.50;54.80;;;;;;5075579;28;19924;-60
2022/05/13 14:24:13;;;;;;;;;;;21.50;54.70;;;;;;5071551;28;19922;-59
2022/05/13 14:26:52;;;;;;;;;;;21.60;55.00;;;;;;5076264;28;21604;-59
2022/05/13 14:29:18;;;;;;;;;;;21.50;54.90;;;;;;5074963;28;19907;-59
2022/05/13 14:31:44;;;;;;;;;;;21.50;55.10;;;;;;5071327;28;19919;-59
2022/05/13 14:34:15;;;;;;;;;;;21.50;55.20;;;;;;5059323;28;21135;-59
2022/05/13 14:36:45;;;;;;;;;;;21.40;55.00;;;;;;5076180;28;19955;-59
2022/05/13 14:42:02;;;;;;;;;;;21.40;54.90;;;;;;5077324;28;19937;-59
2022/05/13 14:44:28;;;;;;;;;;;21.40;55.00;;;;;;5072757;28;20412;-59
2022/05/13 14:47:00;;;;;;;;;;;21.30;55.10;;;;;;5075272;28;19916;-59
2022/05/13 14:49:44;;;;;;;;;;;21.30;55.80;;;;;;5076437;28;19968;-59
2022/05/13 14:52:17;;;;;;;;;;;21.30;55.10;;;;;;5076282;28;19909;-59
2022/05/13 14:54:45;;;;;;;;;;;21.30;55.10;;;;;;5056334;28;19912;-59
2022/05/13 14:57:10;;;;;;;;;;;21.30;55.30;;;;;;5076848;28;19912;-59
2022/05/13 14:59:51;;;;;;;;;;;21.20;55.30;;;;;;5037672;28;19916;-59
2022/05/13 15:02:31;;;;;;;;;;;21.20;55.20;;;;;;5071304;28;19959;-59